Time;durP1;ratioP1;P1;durP2;ratioP2;P2;SDS_P1;SDS_P2;PMS_P1;PMS_P2;Temp;Humidity;BMP_temperature;BMP_pressure;BME280_temperature;BME280_humidity;BME280_pressure;Samples;Min_cycle;Max_cycle;Signal;HPM_P1;HPM_P2
2024/04/25 00:01:21;;;;;;;;;;;;;;;4.96;66.14;97019.56;5424142;26;20375;-77
2024/04/25 00:04:14;;;;;;;;;;;;;;;4.91;66.48;97016.94;5432002;26;20336;-70
2024/04/25 00:07:08;;;;;;;;;;;;;;;4.89;66.56;97006.47;5426383;26;20376;-69
2024/04/25 00:09:58;;;;;;;;;;;;;;;4.88;66.87;97012.94;5422726;26;19956;-69
2024/04/25 00:12:48;;;;;;;;;;;;;;;4.86;67.04;97008.97;5419856;26;22039;-71
2024/04/25 00:15:38;;;;;;;;;;;;;;;4.85;66.88;97005.47;5395798;26;19929;-69
2024/04/25 00:18:31;;;;;;;;;;;;;;;4.84;67.22;97016.53;5422252;26;20391;-71
2024/04/25 00:21:23;;;;;;;;;;;;;;;4.81;67.14;97006.38;5430029;26;19933;-70
2024/04/25 00:24:15;;;;;;;;;;;;;;;4.76;67.76;97009.13;5419520;26;20252;-70
2024/04/25 00:27:04;;;;;;;;;;;;;;;4.84;67.49;97011.13;5428205;26;19933;-71
2024/04/25 00:29:54;;;;;;;;;;;;;;;4.78;68.02;96999.66;5421297;26;19944;-70
2024/04/25 00:32:44;;;;;;;;;;;;;;;4.80;67.85;97002.88;5420093;26;19928;-70
2024/04/25 00:35:37;;;;;;;;;;;;;;;4.97;66.97;96994.22;5420236;26;19954;-71
2024/04/25 00:38:30;;;;;;;;;;;;;;;4.87;67.32;97000.59;5399998;26;19929;-71
2024/04/25 00:41:20;;;;;;;;;;;;;;;4.86;67.63;96998.19;5426935;26;20275;-70
2024/04/25 00:44:10;;;;;;;;;;;;;;;4.85;67.73;96993.91;5422783;26;19929;-71
2024/04/25 00:47:00;;;;;;;;;;;;;;;4.87;67.93;97002.47;5431038;26;20302;-70
2024/04/25 00:49:50;;;;;;;;;;;;;;;4.89;67.99;96992.22;5424895;26;19955;-70
2024/04/25 00:52:40;;;;;;;;;;;;;;;4.90;67.87;97001.88;5426887;26;19936;-70
2024/04/25 00:55:32;;;;;;;;;;;;;;;4.93;67.67;96993.22;5416280;26;19935;-71
2024/04/25 00:58:24;;;;;;;;;;;;;;;4.90;67.32;96991.09;5421169;26;19928;-71
2024/04/25 01:01:14;;;;;;;;;;;;;;;4.88;67.73;96990.63;5419084;26;19961;-70
2024/04/25 01:04:03;;;;;;;;;;;;;;;4.89;67.76;97002.97;5420306;26;19940;-70
2024/04/25 01:06:56;;;;;;;;;;;;;;;4.92;67.48;96997.00;5420853;26;19937;-71
2024/04/25 01:09:46;;;;;;;;;;;;;;;4.91;67.72;96996.22;5400258;26;19937;-70
2024/04/25 01:12:38;;;;;;;;;;;;;;;4.88;67.74;96993.31;5419705;26;19928;-75
2024/04/25 01:15:28;;;;;;;;;;;;;;;4.82;68.34;96991.81;5423680;26;19937;-76
2024/04/25 01:18:18;;;;;;;;;;;;;;;4.82;68.44;96997.19;5422769;26;20388;-75
2024/04/25 01:21:08;;;;;;;;;;;;;;;4.85;68.18;96985.84;5419768;26;19994;-74
2024/04/25 01:23:59;;;;;;;;;;;;;;;4.77;68.52;96990.00;5395798;26;19945;-70
2024/04/25 01:26:51;;;;;;;;;;;;;;;4.84;68.60;96989.59;5415114;26;19944;-70
2024/04/25 01:29:41;;;;;;;;;;;;;;;4.87;68.51;96989.81;5425231;26;20602;-71
2024/04/25 01:32:32;;;;;;;;;;;;;;;4.87;68.65;96989.03;5395387;26;19936;-70
2024/04/25 01:35:23;;;;;;;;;;;;;;;4.86;68.58;96984.75;5417587;26;19935;-70
2024/04/25 01:38:15;;;;;;;;;;;;;;;4.93;68.39;96987.84;5434124;26;19948;-71
2024/04/25 01:41:04;;;;;;;;;;;;;;;4.94;67.81;96990.22;5422339;26;20392;-70
2024/04/25 01:43:57;;;;;;;;;;;;;;;4.92;68.32;96986.25;5421665;26;19928;-70
2024/04/25 01:46:48;;;;;;;;;;;;;;;4.90;68.63;96983.03;5423783;26;20067;-70
2024/04/25 01:49:38;;;;;;;;;;;;;;;5.00;68.11;96988.22;5405324;26;20384;-71
2024/04/25 01:52:28;;;;;;;;;;;;;;;4.92;68.71;96981.66;5437177;26;19943;-70
2024/04/25 01:55:18;;;;;;;;;;;;;;;4.94;68.50;96982.16;5426096;26;19945;-71
2024/04/25 01:58:10;;;;;;;;;;;;;;;4.94;68.69;96978.66;5421447;26;19929;-71
2024/04/25 02:01:03;;;;;;;;;;;;;;;4.95;68.94;96974.88;5424552;26;19935;-71
2024/04/25 02:07:32;;;;;;;;;;;;;;;4.97;68.52;96972.69;5421910;26;20003;-71
2024/04/25 02:10:23;;;;;;;;;;;;;;;5.04;68.36;96973.09;5393859;26;19937;-71
2024/04/25 02:13:13;;;;;;;;;;;;;;;4.98;68.69;96974.28;5406978;26;19937;-71
2024/04/25 02:16:05;;;;;;;;;;;;;;;4.96;68.71;96966.50;5420767;26;19998;-71
2024/04/25 02:18:56;;;;;;;;;;;;;;;4.94;69.08;96967.88;5422509;26;19944;-73
2024/04/25 02:27:57;;;;;;;;;;;;;;;5.03;68.63;96965.31;5425246;26;19935;-70
2024/04/25 02:30:47;;;;;;;;;;;;;;;5.02;68.73;96969.91;5425829;26;19956;-70
2024/04/25 02:33:40;;;;;;;;;;;;;;;5.03;68.84;96970.69;5432096;26;20002;-70
2024/04/25 02:36:29;;;;;;;;;;;;;;;5.03;68.91;96968.00;5413879;26;20260;-70
2024/04/25 02:39:21;;;;;;;;;;;;;;;5.15;68.32;96965.63;5432460;26;19936;-71
2024/04/25 02:42:11;;;;;;;;;;;;;;;5.02;68.82;96967.22;5420212;26;19961;-75
2024/04/25 02:45:01;;;;;;;;;;;;;;;5.04;68.36;96966.91;5420129;26;20001;-75
2024/04/25 02:47:48;;;;;;;;;;;;;;;5.05;68.62;96965.81;5423258;26;19936;-75
2024/04/25 02:50:41;;;;;;;;;;;;;;;5.08;68.20;96968.72;5425649;26;20848;-75
2024/04/25 02:53:31;;;;;;;;;;;;;;;5.03;68.46;96959.94;5421835;26;19940;-76
2024/04/25 02:56:21;;;;;;;;;;;;;;;5.00;68.83;96969.38;5433505;26;19937;-76
2024/04/25 02:59:08;;;;;;;;;;;;;;;4.99;69.17;96962.41;5432067;26;19932;-69
2024/04/25 03:01:58;;;;;;;;;;;;;;;5.02;68.58;96964.53;5424529;26;19936;-69
2024/04/25 03:04:50;;;;;;;;;;;;;;;4.99;68.99;96962.41;5402238;26;20632;-69
2024/04/25 03:07:42;;;;;;;;;;;;;;;4.99;69.16;96957.03;5397827;26;19936;-69
2024/04/25 03:10:32;;;;;;;;;;;;;;;5.10;68.70;96958.44;5419355;26;20389;-69
2024/04/25 03:13:19;;;;;;;;;;;;;;;5.12;68.56;96953.56;5404119;26;19941;-69
2024/04/25 03:16:09;;;;;;;;;;;;;;;5.10;68.73;96955.75;5421853;26;19991;-69
2024/04/25 03:18:56;;;;;;;;;;;;;;;5.13;68.73;96954.34;5427343;26;19935;-69
2024/04/25 03:21:46;;;;;;;;;;;;;;;5.19;68.56;96953.94;5431753;26;19928;-68
2024/04/25 03:24:36;;;;;;;;;;;;;;;5.16;68.55;96954.53;5428761;26;19944;-68
2024/04/25 03:27:26;;;;;;;;;;;;;;;5.14;68.77;96959.44;5433437;26;19936;-68
2024/04/25 03:30:13;;;;;;;;;;;;;;;5.21;68.89;96957.13;5445075;26;20015;-68
2024/04/25 03:33:03;;;;;;;;;;;;;;;5.23;68.33;96960.34;5442978;26;20404;-70
2024/04/25 03:35:54;;;;;;;;;;;;;;;5.16;69.46;96954.53;5407144;26;19936;-70
2024/04/25 03:38:44;;;;;;;;;;;;;;;5.19;68.80;96962.03;5420067;26;20018;-70
2024/04/25 03:41:36;;;;;;;;;;;;;;;5.21;68.92;96964.41;5401775;26;20002;-70
2024/04/25 03:44:26;;;;;;;;;;;;;;;5.18;69.21;96963.13;5425563;26;19943;-70
2024/04/25 03:47:16;;;;;;;;;;;;;;;5.21;69.20;96961.72;5423177;26;20005;-71
2024/04/25 03:50:07;;;;;;;;;;;;;;;5.21;69.55;96967.09;5414706;26;20260;-70
2024/04/25 03:52:57;;;;;;;;;;;;;;;5.23;69.33;96957.66;5403206;26;19959;-71
2024/04/25 03:55:47;;;;;;;;;;;;;;;5.23;69.37;96960.34;5428271;26;19929;-71
2024/04/25 03:58:39;;;;;;;;;;;;;;;5.31;69.13;96958.03;5426374;26;19935;-70
2024/04/25 04:01:29;;;;;;;;;;;;;;;5.21;69.83;96967.09;5425928;25;19929;-70
2024/04/25 04:04:19;;;;;;;;;;;;;;;5.26;69.84;96969.69;5423788;26;21025;-77
2024/04/25 04:07:09;;;;;;;;;;;;;;;5.21;69.95;96970.59;5401750;26;20365;-76
2024/04/25 04:09:59;;;;;;;;;;;;;;;5.31;69.84;96976.88;5422905;26;19929;-76
2024/04/25 04:12:49;;;;;;;;;;;;;;;5.19;70.47;96970.09;5422944;26;20379;-76
2024/04/25 04:15:42;;;;;;;;;;;;;;;5.22;70.38;96968.72;5422303;26;19978;-77
2024/04/25 04:18:32;;;;;;;;;;;;;;;5.29;70.21;96979.09;5426591;26;19936;-78
2024/04/25 04:21:23;;;;;;;;;;;;;;;5.34;70.21;96979.00;5427251;26;19941;-71
2024/04/25 04:24:14;;;;;;;;;;;;;;;5.28;70.21;96977.50;5443080;26;19935;-70
2024/04/25 04:27:04;;;;;;;;;;;;;;;5.32;70.20;96978.47;5413145;26;20301;-71
2024/04/25 04:29:54;;;;;;;;;;;;;;;5.45;69.76;96983.06;5438773;26;19937;-70
2024/04/25 04:32:47;;;;;;;;;;;;;;;5.60;69.13;96982.75;5416501;26;19936;-72
2024/04/25 04:35:37;;;;;;;;;;;;;;;5.46;69.10;96982.75;5426393;26;20296;-71
2024/04/25 04:38:26;;;;;;;;;;;;;;;5.48;69.78;96982.44;5424344;26;20408;-71
2024/04/25 04:41:17;;;;;;;;;;;;;;;5.49;69.52;96981.38;5438661;26;19964;-71
2024/04/25 04:44:07;;;;;;;;;;;;;;;5.49;69.31;96984.06;5435273;26;19928;-71
2024/04/25 04:46:57;;;;;;;;;;;;;;;5.49;70.00;96989.47;5443770;26;19928;-71
2024/04/25 04:49:50;;;;;;;;;;;;;;;5.55;69.57;96988.25;5439066;26;19941;-72
2024/04/25 04:52:40;;;;;;;;;;;;;;;5.56;70.04;96995.22;5441855;26;19940;-76
2024/04/25 04:55:30;;;;;;;;;;;;;;;5.53;70.10;97001.22;5426236;26;19936;-75
2024/04/25 04:58:20;;;;;;;;;;;;;;;5.49;70.74;97005.63;5420143;26;20352;-76
2024/04/25 05:01:10;;;;;;;;;;;;;;;5.47;70.54;96997.81;5407463;26;19935;-77
2024/04/25 05:04:00;;;;;;;;;;;;;;;5.52;70.58;96999.63;5436018;26;19941;-75
2024/04/25 05:06:53;;;;;;;;;;;;;;;5.43;71.22;97004.09;5423131;26;19936;-77
2024/04/25 05:09:42;;;;;;;;;;;;;;;5.36;71.81;97007.22;5446199;26;19936;-75
2024/04/25 05:12:32;;;;;;;;;;;;;;;5.36;71.95;97006.41;5427799;26;19936;-73
2024/04/25 05:15:22;;;;;;;;;;;;;;;5.17;72.51;97012.69;5449967;26;20384;-76
2024/04/25 05:18:12;;;;;;;;;;;;;;;5.24;72.51;97005.00;5421618;26;19995;-72
2024/04/25 05:21:02;;;;;;;;;;;;;;;5.31;72.19;97018.06;5414510;26;20336;-76
2024/04/25 05:23:54;;;;;;;;;;;;;;;5.32;71.91;97022.34;5422903;26;19939;-73
2024/04/25 05:26:44;;;;;;;;;;;;;;;5.34;70.38;97025.56;5433716;26;20261;-72
2024/04/25 05:29:34;;;;;;;;;;;;;;;5.33;71.09;97025.88;5406827;26;20366;-69
2024/04/25 05:32:27;;;;;;;;;;;;;;;5.30;71.30;97029.16;5419784;26;19928;-70
2024/04/25 05:35:18;;;;;;;;;;;;;;;5.32;71.46;97032.34;5440985;26;20247;-71
2024/04/25 05:38:08;;;;;;;;;;;;;;;5.13;71.52;97033.22;5442828;26;19928;-69
2024/04/25 05:41:02;;;;;;;;;;;;;;;5.04;72.02;97032.31;5443504;26;19936;-69
2024/04/25 05:43:53;;;;;;;;;;;;;;;5.00;73.00;97034.00;5413250;26;19937;-69
2024/04/25 05:46:43;;;;;;;;;;;;;;;5.05;72.78;97038.50;5434171;26;19937;-70
2024/04/25 05:49:33;;;;;;;;;;;;;;;5.14;72.77;97045.59;5414320;26;19978;-69
2024/04/25 05:52:23;;;;;;;;;;;;;;;4.90;73.17;97047.63;5442178;20;19941;-56
2024/04/25 05:55:14;;;;;;;;;;;;;;;4.86;74.10;97049.34;5373758;26;19938;-56
2024/04/25 05:58:07;;;;;;;;;;;;;;;4.79;74.09;97046.19;5371046;26;20373;-56
2024/04/25 06:00:57;;;;;;;;;;;;;;;4.75;74.86;97048.72;5370769;26;19936;-57
2024/04/25 06:03:46;;;;;;;;;;;;;;;4.76;75.13;97046.81;5374083;26;19930;-56
2024/04/25 06:06:36;;;;;;;;;;;;;;;4.68;76.39;97059.03;5370341;26;19930;-56
2024/04/25 06:09:26;;;;;;;;;;;;;;;4.97;73.24;97069.59;5378582;26;19929;-56
2024/04/25 06:12:16;;;;;;;;;;;;;;;4.76;73.79;97068.34;5365810;26;19930;-56
2024/04/25 06:15:09;;;;;;;;;;;;;;;4.56;75.12;97081.00;5365340;26;20398;-56
2024/04/25 06:18:02;;;;;;;;;;;;;;;4.34;75.67;97067.38;5365929;26;19936;-56
2024/04/25 06:20:51;;;;;;;;;;;;;;;4.25;76.00;97069.09;5375562;26;19941;-55
2024/04/25 06:23:42;;;;;;;;;;;;;;;4.18;76.96;97069.47;5369005;26;19930;-55
2024/04/25 06:26:32;;;;;;;;;;;;;;;4.20;77.04;97062.69;5370878;26;20452;-55
2024/04/25 06:29:25;;;;;;;;;;;;;;;4.17;77.44;97065.19;5373568;26;19959;-55
2024/04/25 06:32:17;;;;;;;;;;;;;;;4.18;78.02;97070.25;5360557;26;19930;-55
2024/04/25 06:35:08;;;;;;;;;;;;;;;4.22;79.13;97061.63;5376144;26;19936;-56
2024/04/25 06:37:57;;;;;;;;;;;;;;;4.31;79.85;97062.56;5378004;26;20283;-56
2024/04/25 06:40:48;;;;;;;;;;;;;;;4.30;79.98;97056.38;5375571;26;19995;-56
2024/04/25 06:43:37;;;;;;;;;;;;;;;4.44;80.98;97068.00;5375943;26;19929;-56
2024/04/25 06:46:27;;;;;;;;;;;;;;;4.47;80.21;97061.22;5372672;26;19946;-56
2024/04/25 06:49:20;;;;;;;;;;;;;;;4.52;79.63;97066.53;5377870;26;19929;-56
2024/04/25 06:52:09;;;;;;;;;;;;;;;4.70;78.75;97070.31;5373196;26;19930;-56
2024/04/25 06:54:59;;;;;;;;;;;;;;;4.69;78.52;97074.09;5382790;26;20270;-56
2024/04/25 06:57:49;;;;;;;;;;;;;;;4.78;78.10;97061.56;5368199;26;19954;-56
2024/04/25 07:00:39;;;;;;;;;;;;;;;4.93;77.78;97068.56;5365048;26;19929;-56
2024/04/25 07:03:28;;;;;;;;;;;;;;;4.99;76.94;97064.69;5372697;26;20007;-56
2024/04/25 07:06:21;;;;;;;;;;;;;;;5.00;76.43;97068.97;5368224;26;19937;-60
2024/04/25 07:09:11;;;;;;;;;;;;;;;5.10;76.47;97068.81;5364271;26;19941;-60
2024/04/25 07:12:01;;;;;;;;;;;;;;;5.18;76.71;97076.22;5372743;26;19934;-56
2024/04/25 07:14:51;;;;;;;;;;;;;;;5.27;75.30;97057.47;5374440;26;19969;-57
2024/04/25 07:17:41;;;;;;;;;;;;;;;5.41;75.54;97065.56;5372938;26;19937;-57
2024/04/25 07:20:30;;;;;;;;;;;;;;;5.53;74.97;97068.56;5376928;26;19947;-61
2024/04/25 07:23:23;;;;;;;;;;;;;;;5.70;74.43;97060.69;5370621;26;20350;-57
2024/04/25 07:26:12;;;;;;;;;;;;;;;5.79;74.11;97066.16;5372686;26;19937;-57
2024/04/25 07:29:02;;;;;;;;;;;;;;;5.85;72.61;97056.06;5367640;26;20260;-57
2024/04/25 07:31:53;;;;;;;;;;;;;;;5.99;72.92;97057.69;5363640;26;20538;-57
2024/04/25 07:34:43;;;;;;;;;;;;;;;6.16;72.61;97061.66;5373116;26;19945;-57
2024/04/25 07:37:33;;;;;;;;;;;;;;;6.27;72.71;97060.31;5365961;26;19938;-57
2024/04/25 07:40:25;;;;;;;;;;;;;;;6.38;72.96;97059.00;5372716;26;20659;-57
2024/04/25 07:43:15;;;;;;;;;;;;;;;6.53;71.42;97057.84;5370873;26;20317;-57
2024/04/25 07:46:09;;;;;;;;;;;;;;;6.61;70.56;97070.63;5369023;26;19929;-57
2024/04/25 07:48:58;;;;;;;;;;;;;;;6.63;69.65;97063.00;5368369;26;19930;-56
2024/04/25 07:51:48;;;;;;;;;;;;;;;6.70;68.13;97060.66;5365794;26;19966;-57
2024/04/25 07:54:38;;;;;;;;;;;;;;;6.82;68.08;97063.63;5372987;26;19929;-56
2024/04/25 07:57:31;;;;;;;;;;;;;;;6.82;65.70;97066.34;5361725;26;19945;-56
2024/04/25 08:00:20;;;;;;;;;;;;;;;6.94;66.63;97064.97;5378955;26;19956;-56
2024/04/25 08:03:11;;;;;;;;;;;;;;;6.90;65.81;97069.41;5372557;26;20270;-57
2024/04/25 08:06:02;;;;;;;;;;;;;;;7.05;65.72;97066.31;5365824;26;20485;-57
2024/04/25 08:08:52;;;;;;;;;;;;;;;7.14;66.57;97067.16;5364227;26;19933;-57
2024/04/25 08:11:42;;;;;;;;;;;;;;;7.28;66.06;97064.38;5451938;21;19960;-70
2024/04/25 08:14:34;;;;;;;;;;;;;;;7.32;65.53;97074.25;5489780;26;19992;-72
2024/04/25 08:17:27;;;;;;;;;;;;;;;7.35;65.37;97073.63;5459293;26;19932;-72
2024/04/25 08:20:18;;;;;;;;;;;;;;;7.34;64.95;97074.72;5455537;26;19940;-72
2024/04/25 08:23:08;;;;;;;;;;;;;;;7.22;64.09;97068.31;5465798;26;20330;-72
2024/04/25 08:25:59;;;;;;;;;;;;;;;7.21;62.58;97074.81;5462188;26;19955;-72
2024/04/25 08:28:49;;;;;;;;;;;;;;;7.08;64.04;97068.38;5476651;26;19952;-78
2024/04/25 08:31:42;;;;;;;;;;;;;;;7.27;64.44;97063.56;5489600;26;19928;-78
2024/04/25 08:34:32;;;;;;;;;;;;;;;7.43;64.81;97068.56;5459092;26;19935;-77
2024/04/25 08:37:22;;;;;;;;;;;;;;;7.59;63.69;97064.34;5456447;26;19934;-78
2024/04/25 08:40:12;;;;;;;;;;;;;;;7.71;62.29;97072.66;5450836;26;19928;-77
2024/04/25 08:43:03;;;;;;;;;;;;;;;7.52;62.34;97070.22;5450264;26;20757;-80
2024/04/25 08:45:55;;;;;;;;;;;;;;;7.37;62.50;97075.22;5453035;26;20013;-72
2024/04/25 08:48:49;;;;;;;;;;;;;;;7.43;61.66;97080.19;5472226;26;20336;-72
2024/04/25 08:51:39;;;;;;;;;;;;;;;7.11;63.97;97081.28;5441453;26;20527;-72
2024/04/25 08:54:29;;;;;;;;;;;;;;;7.06;64.17;97076.81;5480957;26;19940;-72
2024/04/25 08:57:18;;;;;;;;;;;;;;;7.04;66.36;97075.53;5482634;26;19934;-72
2024/04/25 09:00:10;;;;;;;;;;;;;;;7.06;67.39;97078.72;5480053;26;19935;-72
2024/04/25 09:03:00;;;;;;;;;;;;;;;7.01;66.63;97076.13;5445647;26;19941;-72
2024/04/25 09:05:53;;;;;;;;;;;;;;;7.10;67.34;97079.69;5454179;26;19978;-72
2024/04/25 09:08:44;;;;;;;;;;;;;;;7.29;63.70;97085.66;5460241;26;20370;-71
2024/04/25 09:11:34;;;;;;;;;;;;;;;7.17;65.68;97081.94;5461840;26;19938;-72
2024/04/25 09:14:24;;;;;;;;;;;;;;;7.18;63.96;97078.94;5460993;26;19947;-73
2024/04/25 09:17:15;;;;;;;;;;;;;;;7.16;63.59;97083.06;5462388;26;19928;-70
2024/04/25 09:20:05;;;;;;;;;;;;;;;7.17;62.62;97081.94;5444184;26;19969;-71
2024/04/25 09:22:57;;;;;;;;;;;;;;;7.35;62.15;97079.03;5453033;26;19972;-70
2024/04/25 09:25:49;;;;;;;;;;;;;;;7.42;62.41;97080.50;5453429;26;19930;-70
2024/04/25 09:28:39;;;;;;;;;;;;;;;7.22;62.58;97076.41;5467843;26;19928;-70
2024/04/25 09:31:33;;;;;;;;;;;;;;;7.51;61.69;97067.81;5471876;26;19987;-70
2024/04/25 09:34:24;;;;;;;;;;;;;;;7.82;61.12;97073.16;5462293;26;19928;-67
2024/04/25 09:37:13;;;;;;;;;;;;;;;8.11;61.60;97076.13;5457161;26;20316;-67
2024/04/25 09:40:07;;;;;;;;;;;;;;;8.38;58.80;97066.16;5443434;26;19928;-67
2024/04/25 09:42:57;;;;;;;;;;;;;;;8.37;57.00;97061.88;5461335;26;19935;-72
2024/04/25 09:45:47;;;;;;;;;;;;;;;8.28;57.71;97061.81;5457198;26;19928;-66
2024/04/25 09:48:37;;;;;;;;;;;;;;;8.37;56.55;97057.25;5443610;26;19955;-68
2024/04/25 09:51:28;;;;;;;;;;;;;;;8.54;57.51;97072.69;5476382;26;19928;-67
2024/04/25 09:54:18;;;;;;;;;;;;;;;8.64;55.86;97060.75;5472109;26;19960;-68
2024/04/25 09:57:11;;;;;;;;;;;;;;;8.69;55.15;97052.47;5488981;26;19928;-68
2024/04/25 10:00:04;;;;;;;;;;;;;;;8.67;55.10;97054.69;5452143;26;19952;-68
2024/04/25 10:02:54;;;;;;;;;;;;;;;8.53;55.32;97054.88;5459719;26;20483;-68
2024/04/25 10:05:44;;;;;;;;;;;;;;;8.69;55.95;97046.25;5468491;26;19929;-68
2024/04/25 10:08:34;;;;;;;;;;;;;;;8.88;53.35;97039.38;5471742;26;19931;-68
2024/04/25 10:11:26;;;;;;;;;;;;;;;8.91;54.32;97036.03;5458491;26;19965;-73
2024/04/25 10:14:27;;;;;;;;;;;;;;;9.23;52.12;97047.44;5497744;26;19928;-67
2024/04/25 10:17:23;;;;;;;;;;;;;;;9.18;50.24;97034.84;5476103;26;20316;-67
2024/04/25 10:20:19;;;;;;;;;;;;;;;9.11;50.07;97036.47;5463235;26;19956;-68
2024/04/25 10:23:11;;;;;;;;;;;;;;;9.01;50.79;97039.53;5483610;26;19929;-76
2024/04/25 10:26:00;;;;;;;;;;;;;;;8.74;51.17;97044.19;5481293;26;19941;-76
2024/04/25 10:28:57;;;;;;;;;;;;;;;8.65;54.73;97043.38;5517632;26;19973;-77
2024/04/25 10:31:51;;;;;;;;;;;;;;;8.40;53.62;97039.56;5480134;26;19944;-76
2024/04/25 10:34:40;;;;;;;;;;;;;;;8.29;54.46;97030.94;5484032;26;19965;-76
2024/04/25 10:37:30;;;;;;;;;;;;;;;8.29;53.97;97030.94;5475088;26;19927;-76
2024/04/25 10:40:20;;;;;;;;;;;;;;;8.31;53.97;97039.53;5448556;26;19928;-76
2024/04/25 10:43:10;;;;;;;;;;;;;;;8.00;51.50;97058.59;5472341;21;19992;-56
2024/04/25 10:46:00;;;;;;;;;;;;;;;7.41;54.00;97049.19;5446178;26;19943;-56
2024/04/25 10:48:52;;;;;;;;;;;;;;;7.32;57.02;97044.53;5439755;26;19929;-56
2024/04/25 10:51:42;;;;;;;;;;;;;;;7.26;57.16;97040.38;5432346;26;19940;-56
2024/04/25 10:54:32;;;;;;;;;;;;;;;7.46;59.22;97038.25;5440011;26;19928;-56
2024/04/25 10:57:22;;;;;;;;;;;;;;;7.69;58.26;97038.94;5444363;26;19969;-59
2024/04/25 11:00:12;;;;;;;;;;;;;;;7.91;56.75;97038.03;5440895;26;19929;-56
2024/04/25 11:03:02;;;;;;;;;;;;;;;7.90;56.95;97034.53;5430325;26;19957;-56
2024/04/25 11:05:55;;;;;;;;;;;;;;;8.05;58.33;97038.72;5433140;26;19932;-56
2024/04/25 11:08:45;;;;;;;;;;;;;;;8.00;57.86;97036.16;5438350;26;19928;-56
2024/04/25 11:11:35;;;;;;;;;;;;;;;8.10;58.47;97025.03;5436673;26;19928;-56
2024/04/25 11:14:24;;;;;;;;;;;;;;;8.20;55.27;97027.41;5443583;26;19986;-56
2024/04/25 11:17:15;;;;;;;;;;;;;;;8.11;55.21;97023.94;5437533;26;20362;-56
2024/04/25 11:20:05;;;;;;;;;;;;;;;8.30;55.90;97021.69;5425257;26;19937;-56
2024/04/25 11:22:57;;;;;;;;;;;;;;;8.50;56.15;97017.59;5432371;26;20328;-56
2024/04/25 11:25:47;;;;;;;;;;;;;;;8.62;54.36;97015.03;5435625;26;20342;-56
2024/04/25 11:28:40;;;;;;;;;;;;;;;8.80;55.21;97010.41;5430610;26;19928;-56
2024/04/25 11:31:30;;;;;;;;;;;;;;;9.09;52.95;97001.56;5448492;26;20239;-56
2024/04/25 11:34:20;;;;;;;;;;;;;;;9.31;51.70;96997.00;5428769;26;19998;-56
2024/04/25 11:37:10;;;;;;;;;;;;;;;9.31;48.51;97008.66;5424752;26;19941;-56
2024/04/25 11:40:02;;;;;;;;;;;;;;;9.31;46.44;96995.09;5436932;26;19929;-56
2024/04/25 11:42:53;;;;;;;;;;;;;;;9.18;46.60;96998.81;5434760;26;20297;-56
2024/04/25 11:45:44;;;;;;;;;;;;;;;9.19;48.85;97000.41;5444294;26;19956;-56
2024/04/25 11:48:34;;;;;;;;;;;;;;;9.29;49.50;97007.41;5442686;26;19936;-57
2024/04/25 11:51:24;;;;;;;;;;;;;;;9.37;49.94;97001.13;5424152;26;20246;-56
2024/04/25 11:54:14;;;;;;;;;;;;;;;9.42;49.30;97000.94;5434576;26;19941;-57
2024/04/25 11:57:06;;;;;;;;;;;;;;;9.43;48.75;96989.00;5446325;26;20001;-57
2024/04/25 11:59:56;;;;;;;;;;;;;;;9.48;48.10;96993.44;5439660;26;19928;-56
2024/04/25 12:02:46;;;;;;;;;;;;;;;9.59;47.94;96994.69;5441542;26;19935;-57
2024/04/25 12:05:36;;;;;;;;;;;;;;;9.90;48.00;96997.03;5434444;26;20333;-57
2024/04/25 12:08:26;;;;;;;;;;;;;;;9.89;44.67;96996.25;5441295;26;20354;-57
2024/04/25 12:11:16;;;;;;;;;;;;;;;10.15;43.50;96987.94;5444056;26;19942;-57
2024/04/25 12:14:09;;;;;;;;;;;;;;;10.13;44.81;96984.75;5444895;26;20370;-56
2024/04/25 12:16:58;;;;;;;;;;;;;;;10.05;44.36;96976.66;5444231;26;19928;-57
2024/04/25 12:19:48;;;;;;;;;;;;;;;10.20;42.97;96978.78;5442866;26;19936;-57
2024/04/25 12:22:38;;;;;;;;;;;;;;;10.22;45.03;96981.97;5502564;21;19968;-71
2024/04/25 12:25:30;;;;;;;;;;;;;;;10.15;45.12;96981.69;5455038;26;19932;-71
2024/04/25 12:28:20;;;;;;;;;;;;;;;10.14;44.63;96978.19;5476512;26;19967;-71
2024/04/25 12:31:13;;;;;;;;;;;;;;;10.15;45.37;96970.84;5482604;26;19940;-71
2024/04/25 12:34:02;;;;;;;;;;;;;;;10.16;44.89;96973.22;5481160;26;20266;-71
2024/04/25 12:36:52;;;;;;;;;;;;;;;10.05;45.87;96973.97;5485813;26;19936;-71
2024/04/25 12:39:43;;;;;;;;;;;;;;;10.18;44.23;96983.78;5466961;26;19936;-71
2024/04/25 12:42:33;;;;;;;;;;;;;;;10.04;44.68;96981.31;5484664;26;19936;-70
2024/04/25 12:45:28;;;;;;;;;;;;;;;10.02;45.74;96985.50;5475008;26;19978;-70
2024/04/25 12:48:20;;;;;;;;;;;;;;;9.65;46.17;96990.66;5455787;26;19952;-70
2024/04/25 12:51:10;;;;;;;;;;;;;;;9.59;48.41;96997.38;5471418;26;19943;-70
2024/04/25 12:54:00;;;;;;;;;;;;;;;9.45;47.19;96997.59;5481031;26;20000;-67
2024/04/25 12:56:51;;;;;;;;;;;;;;;9.35;48.37;96998.75;5474778;26;20313;-67
2024/04/25 12:59:41;;;;;;;;;;;;;;;9.26;47.81;96995.28;5457730;26;19934;-67
2024/04/25 13:02:31;;;;;;;;;;;;;;;9.13;48.20;96996.28;5453380;26;19928;-67
2024/04/25 13:05:23;;;;;;;;;;;;;;;8.96;50.03;96986.31;5477454;26;19937;-67
2024/04/25 13:08:13;;;;;;;;;;;;;;;8.91;51.30;96995.41;5469881;26;19927;-66
2024/04/25 13:11:03;;;;;;;;;;;;;;;8.69;52.45;97000.22;5484069;26;19996;-68
2024/04/25 13:13:52;;;;;;;;;;;;;;;8.77;52.34;97008.31;5473795;26;19934;-69
2024/04/25 13:16:42;;;;;;;;;;;;;;;8.82;52.84;97008.16;5447964;26;19928;-68
2024/04/25 13:19:32;;;;;;;;;;;;;;;8.87;52.82;97023.44;5483000;26;19936;-68
2024/04/25 13:22:24;;;;;;;;;;;;;;;8.80;52.75;97034.78;5483587;26;20272;-68
2024/04/25 13:25:14;;;;;;;;;;;;;;;8.72;54.50;97016.59;5482207;26;19943;-68
2024/04/25 13:28:04;;;;;;;;;;;;;;;8.63;55.21;97034.81;5470774;26;19956;-71
2024/04/25 13:30:54;;;;;;;;;;;;;;;8.48;56.30;97029.88;5450117;26;19955;-70
2024/04/25 13:33:43;;;;;;;;;;;;;;;8.28;55.69;97023.94;5489276;26;19932;-71
2024/04/25 13:36:34;;;;;;;;;;;;;;;8.34;55.45;97030.78;5490310;26;19928;-71
2024/04/25 13:39:26;;;;;;;;;;;;;;;8.38;54.80;97023.66;5487060;26;19973;-71
2024/04/25 13:42:16;;;;;;;;;;;;;;;8.42;54.37;97026.53;5489404;26;19927;-86
2024/04/25 13:45:07;;;;;;;;;;;;;;;8.51;53.22;97018.38;5459405;26;20705;-69
2024/04/25 13:47:58;;;;;;;;;;;;;;;8.50;52.68;97005.97;5452805;26;19937;-69
2024/04/25 13:50:47;;;;;;;;;;;;;;;8.58;50.20;96991.66;5484072;26;19941;-69
2024/04/25 13:53:38;;;;;;;;;;;;;;;8.77;47.98;96991.28;5458409;26;19928;-69
2024/04/25 13:56:31;;;;;;;;;;;;;;;8.84;50.03;96989.69;5487507;26;19936;-71
2024/04/25 13:59:22;;;;;;;;;;;;;;;8.98;49.66;96994.09;5462297;26;19935;-76
2024/04/25 14:02:12;;;;;;;;;;;;;;;9.01;50.42;96996.19;5467166;26;19939;-71
2024/04/25 14:05:02;;;;;;;;;;;;;;;9.08;49.74;96993.75;5489368;26;20415;-71
2024/04/25 14:07:54;;;;;;;;;;;;;;;9.17;51.53;96995.31;5479091;26;20262;-71
2024/04/25 14:10:44;;;;;;;;;;;;;;;9.32;49.77;96991.28;5470060;26;20382;-72
2024/04/25 14:13:37;;;;;;;;;;;;;;;9.45;47.91;96994.88;5446413;26;19929;-70
2024/04/25 14:16:27;;;;;;;;;;;;;;;9.48;47.46;96988.81;5443488;26;19927;-71
2024/04/25 14:19:17;;;;;;;;;;;;;;;9.54;46.36;96990.22;5468025;26;19939;-71
2024/04/25 14:22:07;;;;;;;;;;;;;;;9.41;45.54;96989.31;5436957;26;19942;-73
2024/04/25 14:25:00;;;;;;;;;;;;;;;9.63;46.17;96984.75;5445421;26;20368;-68
2024/04/25 14:30:59;;;;;;;;;;;;;;;9.79;48.50;96974.13;5441761;26;20252;-75
2024/04/25 14:33:49;;;;;;;;;;;;;;;9.87;47.30;96979.50;5493806;26;19997;-75
2024/04/25 14:36:39;;;;;;;;;;;;;;;9.73;46.29;96978.94;5470688;26;19933;-76
2024/04/25 14:39:29;;;;;;;;;;;;;;;9.72;46.34;96974.66;5447533;26;19928;-77
2024/04/25 14:42:19;;;;;;;;;;;;;;;9.52;46.83;96972.69;5482882;26;19932;-75
2024/04/25 14:45:09;;;;;;;;;;;;;;;9.61;47.70;96957.97;5453169;26;19957;-76
2024/04/25 14:48:02;;;;;;;;;;;;;;;9.79;46.11;96964.06;5445471;26;19928;-75
2024/04/25 14:50:52;;;;;;;;;;;;;;;9.84;46.82;96963.88;5487258;26;19928;-76
2024/04/25 14:53:43;;;;;;;;;;;;;;;9.92;44.74;96967.66;5482268;26;20276;-75
2024/04/25 14:56:32;;;;;;;;;;;;;;;9.98;45.50;96966.34;5473956;26;20360;-74
2024/04/25 14:59:22;;;;;;;;;;;;;;;10.00;45.76;96963.28;5452367;26;19936;-75
2024/04/25 15:02:16;;;;;;;;;;;;;;;9.97;43.89;96949.28;5466926;26;20386;-76
2024/04/25 15:05:08;;;;;;;;;;;;;;;10.08;45.25;96949.66;5470094;26;19928;-76
2024/04/25 15:07:58;;;;;;;;;;;;;;;9.88;46.95;96956.66;5468543;26;19947;-75
2024/04/25 15:10:50;;;;;;;;;;;;;;;9.83;45.37;96953.38;5450786;26;19959;-73
2024/04/25 15:13:40;;;;;;;;;;;;;;;9.97;44.99;96960.13;5473086;26;19928;-74